Time;durP1;ratioP1;P1;durP2;ratioP2;P2;SDS_P1;SDS_P2;PMS_P1;PMS_P2;Temp;Humidity;BMP_temperature;BMP_pressure;BME280_temperature;BME280_humidity;BME280_pressure;Samples;Min_cycle;Max_cycle;Signal;HPM_P1;HPM_P2
2022/12/29 00:03:04;;;;;;;0.10;0.10;;;;;;;9.93;100.00;100022.72;10418120;28;20053;-74
2022/12/29 00:08:07;;;;;;;0.10;0.10;;;;;;;9.95;100.00;99999.94;10417151;28;20448;-74
2022/12/29 00:18:29;;;;;;;0.10;0.10;;;;;;;10.10;100.00;99997.22;10415816;28;20058;-74
2022/12/29 00:44:55;;;;;;;0.25;0.25;;;;;;;9.89;100.00;99942.81;10415991;28;20485;-74
2022/12/29 00:49:57;;;;;;;0.20;0.20;;;;;;;10.10;100.00;99934.44;10416010;28;20053;-74
2022/12/29 00:55:00;;;;;;;0.20;0.20;;;;;;;9.99;100.00;99917.72;10416215;28;20046;-74
2022/12/29 01:00:03;;;;;;;0.10;0.10;;;;;;;9.88;100.00;99935.91;10414312;28;20433;-74
2022/12/29 01:05:05;;;;;;;0.20;0.20;;;;;;;9.89;100.00;99948.06;10416002;28;20053;-74
2022/12/29 01:10:11;;;;;;;0.10;0.10;;;;;;;9.76;100.00;99942.81;10414083;28;20075;-73
2022/12/29 01:15:14;;;;;;;0.20;0.20;;;;;;;9.69;100.00;99941.56;10415698;28;20045;-74
2022/12/29 01:20:17;;;;;;;0.20;0.20;;;;;;;9.62;100.00;99929.84;10413914;28;20443;-74
2022/12/29 01:25:19;;;;;;;0.10;0.10;;;;;;;9.73;100.00;99932.56;10413798;28;20046;-74
2022/12/29 01:30:21;;;;;;;0.10;0.10;;;;;;;9.63;100.00;99926.28;10413633;28;20485;-74
2022/12/29 01:35:24;;;;;;;0.10;0.10;;;;;;;9.58;100.00;99918.78;10414173;28;20056;-74
2022/12/29 01:40:26;;;;;;;0.20;0.20;;;;;;;9.71;100.00;99921.38;10417615;28;20049;-74
2022/12/29 01:45:28;;;;;;;0.10;0.10;;;;;;;9.82;100.00;99912.81;10405846;28;20124;-74
2022/12/29 01:50:33;;;;;;;0.10;0.10;;;;;;;9.82;100.00;99903.19;10421605;28;20054;-74
2022/12/29 01:55:43;;;;;;;0.00;0.00;;;;;;;9.91;100.00;99896.50;10421140;28;20447;-74
2022/12/29 02:00:46;;;;;;;0.10;0.10;;;;;;;9.97;100.00;99905.69;10421672;28;20053;-74
2022/12/29 02:05:58;;;;;;;0.10;0.10;;;;;;;10.07;100.00;99898.03;10422604;28;20060;-74
2022/12/29 02:11:01;;;;;;;0.10;0.10;;;;;;;10.17;100.00;99888.59;10421408;28;20045;-74
2022/12/29 02:16:21;;;;;;;0.10;0.10;;;;;;;10.29;100.00;99879.91;10422200;28;20124;-74
2022/12/29 02:21:52;;;;;;;0.10;0.10;;;;;;;10.21;100.00;99877.00;10421597;28;20059;-74
2022/12/29 02:27:15;;;;;;;0.10;0.10;;;;;;;10.26;100.00;99861.81;10420805;28;20053;-73
2022/12/29 02:32:30;;;;;;;0.00;0.00;;;;;;;10.19;100.00;99864.03;10421667;28;20049;-74
2022/12/29 02:38:00;;;;;;;0.10;0.10;;;;;;;10.27;100.00;99845.19;10420291;28;20045;-73
2022/12/29 02:43:11;;;;;;;0.10;0.10;;;;;;;10.21;100.00;99854.28;10420615;28;20053;-74
2022/12/29 02:48:28;;;;;;;0.03;0.03;;;;;;;10.28;100.00;99841.59;10420891;28;20046;-74
2022/12/29 02:58:54;;;;;;;1.65;1.23;;;;;;;10.38;100.00;99847.03;10419046;28;20049;-73
2022/12/29 03:03:56;;;;;;;0.10;0.10;;;;;;;10.61;100.00;99827.06;10420546;28;20060;-74
2022/12/29 03:09:21;;;;;;;0.10;0.10;;;;;;;10.35;100.00;99840.25;10420107;28;20058;-74
2022/12/29 03:19:52;;;;;;;0.10;0.10;;;;;;;10.38;100.00;99831.34;10419170;28;20492;-74
2022/12/29 03:25:05;;;;;;;0.10;0.10;;;;;;;10.34;100.00;99838.59;10418478;28;20096;-74
2022/12/29 03:30:08;;;;;;;0.10;0.10;;;;;;;10.49;100.00;99833.16;10418386;28;20045;-73
2022/12/29 03:35:15;;;;;;;0.10;0.10;;;;;;;10.41;100.00;99825.91;10418082;28;20053;-74
2022/12/29 03:40:18;;;;;;;0.20;0.20;;;;;;;10.32;100.00;99809.09;10419307;28;20049;-73
2022/12/29 03:45:21;;;;;;;0.98;0.38;;;;;;;10.46;100.00;99828.19;10417576;28;20045;-74
2022/12/29 03:50:23;;;;;;;0.10;0.10;;;;;;;10.44;100.00;99802.13;10418262;28;20087;-74
2022/12/29 03:55:25;;;;;;;0.10;0.10;;;;;;;10.29;100.00;99809.28;10400138;28;20167;-75
2022/12/29 04:00:28;;;;;;;0.10;0.10;;;;;;;10.29;100.00;99806.66;10417121;28;20064;-74
2022/12/29 04:05:31;;;;;;;0.20;0.20;;;;;;;10.36;100.00;99833.25;10417270;28;20049;-74
2022/12/29 04:10:34;;;;;;;0.10;0.10;;;;;;;10.40;100.00;99817.19;10417868;28;20151;-74
2022/12/29 04:15:37;;;;;;;0.30;0.30;;;;;;;10.31;100.00;99823.06;10416405;28;20056;-75
2022/12/29 04:26:00;;;;;;;0.20;0.20;;;;;;;10.44;100.00;99823.06;10416685;28;20443;-74
2022/12/29 04:31:04;;;;;;;0.10;0.10;;;;;;;10.40;100.00;99830.28;10417130;28;20096;-74
2022/12/29 04:36:06;;;;;;;0.20;0.20;;;;;;;10.21;100.00;99840.38;10415640;28;20050;-74
2022/12/29 04:41:08;;;;;;;0.20;0.20;;;;;;;10.13;100.00;99814.75;10399533;28;20061;-74
2022/12/29 04:46:11;;;;;;;0.17;0.17;;;;;;;10.01;100.00;99834.75;10415499;28;20052;-73
2022/12/29 04:51:13;;;;;;;0.20;0.20;;;;;;;9.76;100.00;99840.88;10415832;28;20062;-74
2022/12/29 04:56:16;;;;;;;0.20;0.20;;;;;;;9.64;100.00;99867.84;10415498;28;20049;-74
2022/12/29 05:01:19;;;;;;;0.10;0.10;;;;;;;9.72;100.00;99854.28;10414953;28;20069;-74
2022/12/29 05:06:22;;;;;;;0.45;0.45;;;;;;;9.57;100.00;99856.16;10415933;28;20041;-72
2022/12/29 05:11:24;;;;;;;0.30;0.30;;;;;;;9.48;100.00;99875.88;10414162;28;20386;-72
2022/12/29 05:16:26;;;;;;;0.10;0.10;;;;;;;9.52;100.00;99874.75;10414972;28;20400;-73
2022/12/29 05:21:29;;;;;;;0.00;0.00;;;;;;;9.47;100.00;99876.84;10415643;28;20057;-73
2022/12/29 05:26:31;;;;;;;1.00;0.60;;;;;;;9.46;100.00;99906.50;10415588;28;20045;-72
2022/12/29 05:31:35;;;;;;;0.10;0.10;;;;;;;9.36;100.00;99919.34;10414269;28;20049;-76
2022/12/29 05:36:38;;;;;;;0.10;0.10;;;;;;;9.50;100.00;99931.50;10414064;28;20045;-75
2022/12/29 05:41:40;;;;;;;0.85;0.30;;;;;;;9.46;100.00;99935.25;10414090;28;20049;-74
2022/12/29 05:46:42;;;;;;;0.20;0.20;;;;;;;9.45;100.00;99937.03;10415260;28;20042;-73
2022/12/29 05:51:45;;;;;;;2.85;2.75;;;;;;;9.29;100.00;99938.97;10414324;28;20063;-74
2022/12/29 05:56:47;;;;;;;0.20;0.20;;;;;;;9.26;100.00;99932.19;10414918;28;20045;-74
2022/12/29 06:01:49;;;;;;;0.45;0.43;;;;;;;9.30;100.00;99925.81;10397545;28;20056;-73
2022/12/29 06:06:52;;;;;;;6.90;0.32;;;;;;;9.28;100.00;99932.09;10414728;28;20091;-74
2022/12/29 06:11:55;;;;;;;0.10;0.10;;;;;;;9.22;100.00;99938.53;10414833;28;20049;-73
2022/12/29 06:16:57;;;;;;;2.13;0.40;;;;;;;9.30;100.00;99928.44;10413975;28;20050;-73
2022/12/29 06:21:59;;;;;;;0.20;0.10;;;;;;;9.14;100.00;99950.44;10414515;28;20054;-72
2022/12/29 06:27:02;;;;;;;0.10;0.10;;;;;;;9.08;100.00;99921.16;10416299;28;20049;-73
2022/12/29 06:32:04;;;;;;;2.65;0.20;;;;;;;9.03;100.00;99922.41;10421740;28;20128;-74
2022/12/29 06:37:07;;;;;;;0.10;0.10;;;;;;;9.04;100.00;99939.75;10420354;28;20084;-73
2022/12/29 06:42:10;;;;;;;0.10;0.10;;;;;;;9.18;100.00;99939.69;10419555;28;20053;-74
2022/12/29 06:47:12;;;;;;;0.30;0.30;;;;;;;9.21;100.00;99929.06;10421190;28;20051;-74
2022/12/29 06:52:14;;;;;;;0.10;0.10;;;;;;;9.10;100.00;99934.97;10420067;28;20409;-74
2022/12/29 06:57:18;;;;;;;0.40;0.40;;;;;;;9.16;100.00;99943.31;10418953;28;20472;-74
2022/12/29 07:02:21;;;;;;;0.10;0.10;;;;;;;9.16;100.00;99943.31;10420014;28;20049;-73
2022/12/29 07:07:23;;;;;;;0.20;0.20;;;;;;;9.16;100.00;99946.75;10420452;28;20053;-74
2022/12/29 07:12:26;;;;;;;0.20;0.20;;;;;;;9.25;100.00;99948.78;10420252;28;20050;-74
2022/12/29 07:17:28;;;;;;;0.43;0.17;;;;;;;9.34;100.00;99949.97;10402583;28;20068;-74
2022/12/29 07:22:30;;;;;;;0.20;0.20;;;;;;;9.39;100.00;99949.66;10419847;28;20107;-73
2022/12/29 07:27:33;;;;;;;1.20;0.45;;;;;;;9.32;100.00;99951.00;10418398;28;20080;-74
2022/12/29 07:32:35;;;;;;;5.53;0.55;;;;;;;9.50;100.00;99955.03;10418736;28;20492;-74
2022/12/29 07:37:37;;;;;;;1.50;1.40;;;;;;;9.55;100.00;99970.38;10418024;28;20046;-73
2022/12/29 07:42:40;;;;;;;0.10;0.10;;;;;;;9.60;100.00;99981.38;10419014;28;20061;-74
2022/12/29 07:47:42;;;;;;;2.90;0.20;;;;;;;9.44;100.00;99971.94;10418833;28;20045;-75
2022/12/29 07:52:46;;;;;;;2.42;0.47;;;;;;;9.52;100.00;99989.72;10417934;28;20057;-74
2022/12/29 07:57:49;;;;;;;1999.90;999.90;;;;;;;9.69;100.00;99978.16;10418270;28;20104;-73
2022/12/29 08:02:51;;;;;;;1999.90;999.90;;;;;;;9.40;100.00;99985.31;10417052;28;20053;-72
2022/12/29 08:07:53;;;;;;;1999.90;999.90;;;;;;;9.39;100.00;99994.91;10416309;28;20045;-72
2022/12/29 08:12:55;;;;;;;1999.90;999.90;;;;;;;9.46;98.73;100000.56;10400478;28;20049;-72
2022/12/29 08:17:58;;;;;;;1999.90;999.90;;;;;;;9.48;97.52;100004.78;10415803;28;20045;-72
2022/12/29 08:23:00;;;;;;;1999.90;999.90;;;;;;;9.33;100.00;100004.91;10416840;28;20497;-73
2022/12/29 08:28:03;;;;;;;1999.90;999.90;;;;;;;9.42;99.69;99999.94;10417291;28;20049;-73
2022/12/29 08:33:06;;;;;;;1999.90;999.90;;;;;;;9.40;100.00;100017.50;10415969;28;20056;-73
2022/12/29 08:38:11;;;;;;;1999.90;999.90;;;;;;;9.45;100.00;100032.88;10416186;28;20493;-73
2022/12/29 08:43:14;;;;;;;1999.90;999.90;;;;;;;9.35;100.00;100027.41;10417307;28;20052;-73
2022/12/29 08:48:21;;;;;;;1999.90;999.90;;;;;;;9.39;100.00;100025.44;10415684;28;20401;-73
2022/12/29 08:53:26;;;;;;;1999.90;999.90;;;;;;;9.66;100.00;100010.53;10398333;28;20164;-73
2022/12/29 08:58:28;;;;;;;1999.90;999.90;;;;;;;9.83;100.00;100016.44;10416174;28;20052;-72
2022/12/29 09:03:31;;;;;;;1999.90;999.90;;;;;;;9.67;99.03;100027.09;10422708;22;20520;-70
2022/12/29 09:08:54;;;;;;;1999.90;999.90;;;;;;;9.66;100.00;100000.09;10374580;28;20461;-70
2022/12/29 09:13:57;;;;;;;1999.90;999.90;;;;;;;9.76;96.20;100023.03;10373972;28;20081;-71
2022/12/29 09:18:59;;;;;;;1999.90;999.90;;;;;;;9.61;100.00;100009.19;10374919;28;20053;-71
2022/12/29 09:24:02;;;;;;;1999.90;999.90;;;;;;;9.66;99.47;100022.78;10374915;28;20053;-71
2022/12/29 09:29:04;;;;;;;1999.90;999.90;;;;;;;9.60;99.49;100016.19;10374078;28;20401;-71
2022/12/29 09:34:07;;;;;;;1999.90;999.90;;;;;;;9.76;97.59;100046.53;10374639;28;20116;-71
2022/12/29 09:39:09;;;;;;;1999.90;999.90;;;;;;;9.74;97.41;100037.97;10373853;28;20169;-72
2022/12/29 09:44:23;;;;;;;1999.90;999.90;;;;;;;9.58;100.00;100046.81;10375156;28;20046;-72
2022/12/29 09:49:30;;;;;;;1999.90;999.90;;;;;;;9.75;99.46;100061.41;10374431;28;20049;-72
2022/12/29 09:54:52;;;;;;;1999.90;999.90;;;;;;;9.55;100.00;100061.84;10373598;28;20551;-72
2022/12/29 10:00:19;;;;;;;1999.90;999.90;;;;;;;9.49;100.00;100071.75;10372587;28;20046;-73
2022/12/29 10:05:50;;;;;;;1999.90;999.90;;;;;;;9.51;100.00;100092.56;10381462;28;20093;-73
2022/12/29 10:10:56;;;;;;;1999.90;999.90;;;;;;;9.28;100.00;100094.06;10379908;28;20046;-73
2022/12/29 10:16:20;;;;;;;1999.90;999.90;;;;;;;9.21;100.00;100116.25;10379747;28;20056;-73
2022/12/29 10:21:37;;;;;;;1999.90;999.90;;;;;;;9.01;100.00;100118.34;10380660;28;20567;-73
2022/12/29 10:26:42;;;;;;;1999.90;999.90;;;;;;;8.91;100.00;100132.91;10381099;28;20054;-73
2022/12/29 10:31:54;;;;;;;1999.90;999.90;;;;;;;8.86;100.00;100145.34;10379767;28;20054;-73
2022/12/29 10:37:17;;;;;;;1999.90;999.90;;;;;;;8.72;100.00;100169.69;10380666;28;20053;-72
2022/12/29 10:42:50;;;;;;;1999.90;999.90;;;;;;;8.64;100.00;100182.34;10379685;28;20452;-73
2022/12/29 10:48:00;;;;;;;1999.90;999.90;;;;;;;8.76;100.00;100163.38;10371374;28;20164;-73
2022/12/29 10:53:05;;;;;;;2.83;2.83;;;;;;;8.96;100.00;100177.84;10380193;28;20061;-73
2022/12/29 10:58:11;;;;;;;1999.90;999.90;;;;;;;8.67;100.00;100192.59;10378087;28;20408;-73
2022/12/29 11:03:36;;;;;;;1999.90;999.90;;;;;;;8.88;100.00;100203.56;10378294;28;20112;-72
2022/12/29 11:08:45;;;;;;;1999.90;999.90;;;;;;;8.82;100.00;100207.34;10378763;28;20046;-72
2022/12/29 11:13:50;;;;;;;1999.90;999.90;;;;;;;8.91;100.00;100198.16;10377200;28;20054;-73
2022/12/29 11:18:52;;;;;;;1999.90;999.90;;;;;;;8.91;100.00;100222.50;10379003;28;20046;-73
2022/12/29 11:24:02;;;;;;;1999.90;999.90;;;;;;;9.13;100.00;100233.41;10378974;28;20082;-73
2022/12/29 11:29:17;;;;;;;1999.90;999.90;;;;;;;9.03;100.00;100236.59;10378724;28;20100;-73
2022/12/29 11:34:21;;;;;;;1999.90;999.90;;;;;;;9.13;100.00;100233.41;10376750;28;20448;-73
2022/12/29 11:39:28;;;;;;;1999.90;999.90;;;;;;;9.21;100.00;100236.41;10377013;28;20075;-72
2022/12/29 11:44:36;;;;;;;1999.90;999.90;;;;;;;9.32;100.00;100230.53;10377459;28;20061;-72
2022/12/29 11:49:38;;;;;;;1999.90;999.90;;;;;;;9.28;100.00;100240.34;10376866;28;20046;-73
2022/12/29 11:54:43;;;;;;;1999.90;999.90;;;;;;;9.70;100.00;100242.97;10376596;28;20049;-72
2022/12/29 11:59:54;;;;;;;1999.90;999.90;;;;;;;9.60;100.00;100235.72;10377400;28;20046;-72
2022/12/29 12:05:16;;;;;;;1999.90;999.90;;;;;;;9.67;100.00;100250.09;10375845;28;20050;-72
2022/12/29 12:10:29;;;;;;;1999.90;999.90;;;;;;;9.64;100.00;100246.84;10375366;28;20409;-72
2022/12/29 12:15:44;;;;;;;1999.90;999.90;;;;;;;9.80;100.00;100250.16;10376034;28;20065;-72
2022/12/29 12:20:57;;;;;;;1999.90;999.90;;;;;;;9.84;100.00;100272.56;10375550;28;20050;-73
2022/12/29 12:26:15;;;;;;;1999.90;999.90;;;;;;;9.70;100.00;100267.38;10374962;28;20054;-72
2022/12/29 12:31:37;;;;;;;1999.90;999.90;;;;;;;9.66;100.00;100263.25;10358991;28;20050;-72
2022/12/29 12:36:52;;;;;;;1999.90;999.90;;;;;;;9.55;100.00;100277.00;10376168;28;20060;-73
2022/12/29 12:42:31;;;;;;;1999.90;999.90;;;;;;;9.44;100.00;100282.84;10375454;28;20552;-72
2022/12/29 12:47:44;;;;;;;1999.90;999.90;;;;;;;9.82;100.00;100286.69;10375159;28;20054;-72
2022/12/29 12:52:58;;;;;;;1999.90;999.90;;;;;;;9.66;100.00;100290.22;10375638;28;20052;-72
2022/12/29 12:58:34;;;;;;;1999.90;999.90;;;;;;;9.62;100.00;100290.53;10374750;28;20382;-72
2022/12/29 13:04:03;;;;;;;1999.90;999.90;;;;;;;9.61;100.00;100287.06;10374549;28;20519;-72
2022/12/29 13:09:27;;;;;;;1999.90;999.90;;;;;;;9.95;100.00;100289.34;10374467;28;20446;-72
2022/12/29 13:14:38;;;;;;;1999.90;999.90;;;;;;;9.83;100.00;100293.56;10374386;28;20218;-72
2022/12/29 13:19:42;;;;;;;1999.90;999.90;;;;;;;9.93;100.00;100286.00;10374297;28;20140;-72
2022/12/29 13:24:50;;;;;;;1999.90;999.90;;;;;;;9.72;100.00;100301.25;10374745;28;20050;-72
2022/12/29 13:30:18;;;;;;;1999.90;999.90;;;;;;;9.91;100.00;100299.16;10374678;28;20046;-72
2022/12/29 13:35:35;;;;;;;1999.90;999.90;;;;;;;9.71;100.00;100310.84;10374880;28;20049;-72
2022/12/29 13:40:41;;;;;;;1999.90;999.90;;;;;;;9.68;100.00;100316.28;10381162;28;20077;-72
2022/12/29 13:45:46;;;;;;;1999.90;999.90;;;;;;;9.78;100.00;100313.94;10364667;28;20050;-72
2022/12/29 13:50:56;;;;;;;1999.90;999.90;;;;;;;9.67;100.00;100312.00;10376568;28;20527;-72
2022/12/29 13:56:12;;;;;;;1999.90;999.90;;;;;;;9.59;100.00;100314.22;10356776;28;20057;-72
2022/12/29 14:01:35;;;;;;;1999.90;999.90;;;;;;;9.23;100.00;100342.47;10372105;28;20417;-73
2022/12/29 14:06:40;;;;;;;1999.90;999.90;;;;;;;8.96;100.00;100360.59;10340646;28;20196;-73
2022/12/29 14:11:44;;;;;;;1999.90;999.90;;;;;;;8.58;100.00;100366.22;10374740;28;20085;-73
2022/12/29 14:16:46;;;;;;;1999.90;999.90;;;;;;;8.53;100.00;100376.06;10389983;28;20053;-73
2022/12/29 14:21:57;;;;;;;1999.90;999.90;;;;;;;8.47;100.00;100364.22;10379442;28;20050;-73
2022/12/29 14:27:00;;;;;;;1999.90;999.90;;;;;;;8.43;100.00;100382.72;10363016;28;20046;-73
2022/12/29 14:32:02;;;;;;;1999.90;999.90;;;;;;;8.58;100.00;100381.03;10378653;28;20069;-73
2022/12/29 14:37:18;;;;;;;1999.90;999.90;;;;;;;8.75;100.00;100375.72;10378781;28;20440;-73
2022/12/29 14:42:24;;;;;;;1999.90;999.90;;;;;;;8.78;100.00;100370.31;10380496;28;20064;-73
2022/12/29 14:47:50;;;;;;;1999.90;999.90;;;;;;;8.88;100.00;100374.09;10376918;28;20472;-73
2022/12/29 14:53:01;;;;;;;0.10;0.10;;;;;;;8.67;100.00;100383.13;10376383;28;20054;-73
2022/12/29 14:58:26;;;;;;;0.50;0.50;;;;;;;8.72;100.00;100388.94;10379208;28;20045;-73
2022/12/29 15:03:46;;;;;;;0.47;0.47;;;;;;;8.66;100.00;100392.72;10377513;28;20058;-73
2022/12/29 15:08:56;;;;;;;0.80;0.80;;;;;;;8.62;100.00;100395.59;10375461;28;20449;-73
2022/12/29 15:13:58;;;;;;;0.30;0.30;;;;;;;8.58;100.00;100402.75;10375990;28;20053;-73
2022/12/29 15:19:00;;;;;;;13.02;1.05;;;;;;;8.52;100.00;100395.25;10377841;28;20398;-73
2022/12/29 15:24:04;;;;;;;0.50;0.50;;;;;;;8.53;100.00;100400.38;10374713;28;20496;-72
2022/12/29 15:29:26;;;;;;;2.03;1.40;;;;;;;8.58;100.00;100400.16;10370912;28;20042;-72
2022/12/29 15:34:31;;;;;;;1.60;1.23;;;;;;;8.56;100.00;100391.56;10373501;28;20438;-72
2022/12/29 15:39:34;;;;;;;3.20;1.90;;;;;;;8.52;100.00;100396.13;10376950;28;20504;-73
2022/12/29 15:44:40;;;;;;;5.57;1.10;;;;;;;8.56;100.00;100399.41;10376657;28;20053;-73
2022/12/29 15:49:43;;;;;;;3.45;0.90;;;;;;;8.42;100.00;100402.72;10380456;28;20089;-72
2022/12/29 15:54:49;;;;;;;0.60;0.60;;;;;;;8.50;100.00;100408.38;10367978;28;20057;-72
2022/12/29 15:59:53;;;;;;;0.20;0.20;;;;;;;8.46;100.00;100419.09;10354650;28;20049;-72
2022/12/29 16:04:56;;;;;;;0.10;0.10;;;;;;;8.41;100.00;100423.69;10376072;28;20065;-73
2022/12/29 16:10:30;;;;;;;0.10;0.10;;;;;;;8.44;100.00;100421.78;10376173;28;20054;-73
2022/12/29 16:15:34;;;;;;;0.10;0.10;;;;;;;8.51;100.00;100423.13;10359041;28;20420;-72
2022/12/29 16:20:41;;;;;;;9.70;1.50;;;;;;;8.42;100.00;100435.78;10375223;28;20417;-72
2022/12/29 16:25:44;;;;;;;0.10;0.10;;;;;;;8.44;100.00;100431.34;10371363;28;20092;-72
2022/12/29 16:30:46;;;;;;;0.10;0.10;;;;;;;8.38;100.00;100432.50;10372644;28;20396;-72
2022/12/29 16:35:49;;;;;;;0.10;0.10;;;;;;;8.43;100.00;100434.91;10375668;28;20558;-72
2022/12/29 16:41:02;;;;;;;0.20;0.20;;;;;;;8.30;100.00;100445.13;10375929;28;20050;-73
2022/12/29 16:46:21;;;;;;;0.30;0.30;;;;;;;8.14;100.00;100451.16;10373058;28;20456;-72
2022/12/29 16:51:29;;;;;;;0.10;0.10;;;;;;;8.08;100.00;100446.25;10373005;28;20050;-73
2022/12/29 16:56:34;;;;;;;6.32;2.20;;;;;;;8.07;100.00;100470.66;10375531;28;20045;-72
2022/12/29 17:01:40;;;;;;;0.10;0.10;;;;;;;8.07;100.00;100465.44;10373528;28;20042;-73
2022/12/29 17:06:43;;;;;;;0.17;0.17;;;;;;;8.08;100.00;100469.72;10374669;28;20127;-72
2022/12/29 17:11:59;;;;;;;0.10;0.10;;;;;;;7.94;100.00;100473.03;10372163;28;20050;-72
2022/12/29 17:17:21;;;;;;;0.30;0.30;;;;;;;7.90;100.00;100488.91;10372433;28;20056;-73
2022/12/29 17:22:25;;;;;;;0.20;0.20;;;;;;;7.91;100.00;100495.81;10355455;28;20060;-72
2022/12/29 17:27:32;;;;;;;1.10;0.30;;;;;;;7.71;100.00;100487.25;10356440;28;20046;-72
2022/12/29 17:32:34;;;;;;;1.00;0.90;;;;;;;7.78;100.00;100509.50;10340259;28;20055;-72
2022/12/29 17:37:37;;;;;;;0.00;0.00;;;;;;;7.62;100.00;100501.59;10333303;28;20053;-72
2022/12/29 17:42:45;;;;;;;0.10;0.10;;;;;;;7.65;100.00;100512.75;10368920;28;20448;-72
2022/12/29 17:47:48;;;;;;;0.10;0.10;;;;;;;7.61;100.00;100525.09;10372246;28;20405;-72
2022/12/29 17:52:59;;;;;;;0.15;0.15;;;;;;;7.61;100.00;100525.09;10369934;28;20115;-72
2022/12/29 17:58:22;;;;;;;0.10;0.10;;;;;;;7.49;100.00;100523.94;10373406;28;20125;-72
2022/12/29 18:03:37;;;;;;;0.10;0.10;;;;;;;7.44;100.00;100534.59;10372073;28;20449;-72
2022/12/29 18:08:41;;;;;;;0.20;0.20;;;;;;;7.22;100.00;100541.75;10372555;28;20072;-72
2022/12/29 18:13:43;;;;;;;0.10;0.10;;;;;;;7.25;100.00;100558.06;10372716;28;20050;-72
2022/12/29 18:18:48;;;;;;;0.10;0.10;;;;;;;7.15;100.00;100549.00;10372044;28;20050;-72
2022/12/29 18:23:50;;;;;;;0.20;0.20;;;;;;;7.10;100.00;100556.19;10376132;28;20577;-72
2022/12/29 18:28:53;;;;;;;0.10;0.10;;;;;;;7.02;100.00;100568.72;10379598;28;20060;-72
2022/12/29 18:33:57;;;;;;;0.25;0.20;;;;;;;7.02;100.00;100574.75;10379793;28;20049;-72
2022/12/29 18:39:00;;;;;;;0.10;0.10;;;;;;;7.00;100.00;100568.78;10379111;28;20399;-72
2022/12/29 18:44:02;;;;;;;0.10;0.10;;;;;;;6.86;100.00;100576.41;10380484;28;20052;-72
2022/12/29 18:49:05;;;;;;;0.10;0.10;;;;;;;7.09;100.00;100574.47;10378645;28;20038;-72
2022/12/29 18:54:28;;;;;;;0.20;0.20;;;;;;;6.92;100.00;100596.91;10378648;28;20489;-73
2022/12/29 18:59:31;;;;;;;0.10;0.10;;;;;;;6.89;100.00;100591.84;10377453;28;20076;-73
2022/12/29 19:04:33;;;;;;;0.10;0.10;;;;;;;6.93;100.00;100589.97;10378853;28;20410;-73
2022/12/29 19:09:35;;;;;;;0.15;0.15;;;;;;;6.81;100.00;100601.78;10376868;28;20056;-73
2022/12/29 19:14:38;;;;;;;0.10;0.10;;;;;;;6.88;100.00;100600.59;10378600;28;20050;-73
2022/12/29 19:19:41;;;;;;;0.10;0.10;;;;;;;6.79;100.00;100607.06;10377834;28;20046;-73
2022/12/29 19:24:44;;;;;;;0.20;0.20;;;;;;;6.88;100.00;100618.81;10377925;28;20057;-73
2022/12/29 19:29:46;;;;;;;0.10;0.10;;;;;;;6.80;100.00;100603.53;10377743;28;20056;-73
2022/12/29 19:34:48;;;;;;;0.20;0.20;;;;;;;6.87;100.00;100623.16;10375292;28;20050;-73
2022/12/29 19:39:52;;;;;;;0.10;0.10;;;;;;;6.92;100.00;100612.53;10377362;28;20073;-72
2022/12/29 19:44:54;;;;;;;0.10;0.10;;;;;;;7.01;100.00;100621.69;10378113;28;20053;-73
2022/12/29 19:49:57;;;;;;;0.10;0.10;;;;;;;6.95;100.00;100635.81;10375975;28;20046;-73
2022/12/29 19:54:59;;;;;;;2.55;0.65;;;;;;;6.99;100.00;100642.59;10376355;28;20489;-73
2022/12/29 20:00:02;;;;;;;0.20;0.20;;;;;;;6.92;100.00;100638.56;10377478;28;20100;-72
2022/12/29 20:05:05;;;;;;;0.10;0.10;;;;;;;6.87;100.00;100638.75;10375668;28;20120;-72
2022/12/29 20:10:08;;;;;;;0.10;0.10;;;;;;;6.79;100.00;100634.81;10375677;28;20100;-72
2022/12/29 20:15:10;;;;;;;0.35;0.35;;;;;;;6.81;100.00;100633.84;10375609;28;20507;-72
2022/12/29 20:20:13;;;;;;;0.10;0.10;;;;;;;6.82;100.00;100639.88;10385371;28;20049;-72
2022/12/29 20:25:15;;;;;;;0.10;0.10;;;;;;;6.69;100.00;100653.44;10381480;28;20386;-72
2022/12/29 20:30:37;;;;;;;1.10;0.20;;;;;;;6.72;100.00;100643.81;10373598;28;20500;-72
2022/12/29 20:35:40;;;;;;;0.10;0.10;;;;;;;6.60;100.00;100656.44;10375643;28;20517;-72
2022/12/29 20:40:45;;;;;;;0.05;0.05;;;;;;;6.71;100.00;100655.97;10374239;28;20448;-72
2022/12/29 20:45:48;;;;;;;0.10;0.10;;;;;;;6.61;100.00;100667.69;10373592;28;20095;-72
2022/12/29 20:50:58;;;;;;;0.13;0.13;;;;;;;6.68;100.00;100669.97;10354971;28;20405;-72
2022/12/29 20:56:03;;;;;;;0.50;0.25;;;;;;;6.60;100.00;100681.59;10373122;28;20444;-73
2022/12/29 21:01:10;;;;;;;0.20;0.20;;;;;;;6.50;100.00;100686.34;10374739;28;20436;-72
2022/12/29 21:06:12;;;;;;;4.40;0.95;;;;;;;6.58;100.00;100675.63;10366030;28;20062;-72
2022/12/29 21:11:15;;;;;;;0.10;0.10;;;;;;;6.60;100.00;100686.81;10335697;28;20054;-72
2022/12/29 21:16:19;;;;;;;0.10;0.10;;;;;;;6.50;100.00;100694.16;10333256;28;20050;-72
2022/12/29 21:21:24;;;;;;;0.15;0.15;;;;;;;6.47;100.00;100702.94;10437187;23;20076;-71
2022/12/29 21:26:27;;;;;;;0.20;0.20;;;;;;;6.55;100.00;100697.41;10455238;28;20045;-71
2022/12/29 21:31:32;;;;;;;0.40;0.30;;;;;;;6.33;100.00;100703.50;10456000;28;20057;-71
2022/12/29 21:36:36;;;;;;;0.13;0.13;;;;;;;6.51;100.00;100695.84;10455575;28;20107;-71
2022/12/29 21:41:39;;;;;;;0.28;0.28;;;;;;;6.45;100.00;100715.16;10456529;28;20052;-70
2022/12/29 21:46:44;;;;;;;0.10;0.10;;;;;;;6.38;100.00;100718.09;10455021;28;20053;-70
2022/12/29 21:51:49;;;;;;;0.30;0.30;;;;;;;6.30;100.00;100729.66;10437608;28;20103;-71
2022/12/29 21:56:51;;;;;;;0.10;0.10;;;;;;;6.39;100.00;100730.16;10458900;28;20071;-70
2022/12/29 22:17:58;;;;;;;0.10;0.10;;;;;;;6.45;100.00;100771.53;10461064;28;20415;-71
2022/12/29 22:23:01;;;;;;;0.10;0.10;;;;;;;6.32;100.00;100778.97;10461665;28;20056;-71
2022/12/29 22:28:03;;;;;;;0.10;0.10;;;;;;;6.37;100.00;100778.78;10461550;28;20053;-71
2022/12/29 22:33:06;;;;;;;0.10;0.10;;;;;;;6.37;100.00;100797.88;10459192;28;20377;-71
2022/12/29 22:38:08;;;;;;;0.20;0.20;;;;;;;6.20;100.00;100776.84;10461660;28;20060;-71
2022/12/29 22:43:11;;;;;;;0.20;0.20;;;;;;;6.06;100.00;100800.81;10461205;28;20053;-71
2022/12/29 22:48:14;;;;;;;0.10;0.10;;;;;;;6.31;100.00;100800.69;10460071;28;20419;-71
2022/12/29 22:53:17;;;;;;;8.93;0.57;;;;;;;6.12;100.00;100814.41;10420860;28;20057;-71
2022/12/29 22:58:19;;;;;;;0.15;0.15;;;;;;;6.22;100.00;100817.50;10420082;28;20091;-71
2022/12/29 23:03:21;;;;;;;0.10;0.10;;;;;;;6.18;100.00;100828.06;10423718;28;20048;-71
2022/12/29 23:08:24;;;;;;;0.30;0.30;;;;;;;6.13;100.00;100836.88;10460416;28;20051;-71
2022/12/29 23:13:27;;;;;;;0.10;0.10;;;;;;;6.22;100.00;100835.72;10459541;28;20049;-71
2022/12/29 23:18:29;;;;;;;0.20;0.20;;;;;;;6.17;100.00;100849.75;10443415;28;20056;-70
2022/12/29 23:28:53;;;;;;;0.20;0.20;;;;;;;6.18;100.00;100886.13;10458880;28;20480;-71
2022/12/29 23:34:02;;;;;;;0.20;0.20;;;;;;;6.11;100.00;100871.66;10443659;28;20088;-71
2022/12/29 23:39:07;;;;;;;0.10;0.10;;;;;;;6.00;100.00;100876.41;10459165;28;20450;-71
2022/12/29 23:44:09;;;;;;;29.73;2.20;;;;;;;6.05;100.00;100872.75;10459307;28;20056;-70
2022/12/29 23:49:12;;;;;;;0.10;0.10;;;;;;;5.97;100.00;100876.50;10459404;28;20087;-71
2022/12/29 23:54:14;;;;;;;0.30;0.30;;;;;;;6.00;100.00;100881.59;10458213;28;20523;-71
2022/12/29 23:59:17;;;;;;;0.13;0.13;;;;;;;5.94;100.00;100885.25;10458600;28;20041;-70
